createdAt,value
2022-10-27T00:00:19.563Z,10.35
2022-10-27T00:02:49.537Z,10.27
2022-10-27T00:05:18.885Z,10.29
2022-10-27T00:07:48.452Z,10.31
2022-10-27T00:10:19.759Z,10.25
2022-10-27T00:12:49.197Z,10.08
2022-10-27T00:15:18.913Z,9.92
2022-10-27T00:17:48.022Z,9.87
2022-10-27T00:20:17.758Z,9.80
2022-10-27T00:22:46.784Z,9.73
2022-10-27T00:25:15.961Z,9.66
2022-10-27T00:27:46.415Z,9.59
2022-10-27T00:30:15.392Z,9.57
2022-10-27T00:32:44.424Z,9.50
2022-10-27T00:35:13.515Z,9.46
2022-10-27T00:37:42.608Z,9.43
2022-10-27T00:40:13.429Z,9.43
2022-10-27T00:42:42.586Z,9.47
2022-10-27T00:45:13.098Z,9.75
2022-10-27T00:47:42.627Z,9.89
2022-10-27T00:50:17.744Z,9.71
2022-10-27T00:52:52.062Z,9.39
2022-10-27T00:55:27.030Z,9.19
2022-10-27T00:57:59.580Z,9.36
2022-10-27T01:00:30.375Z,9.29
2022-10-27T01:02:59.608Z,9.30
2022-10-27T01:05:30.494Z,9.44
2022-10-27T01:08:03.296Z,9.37
2022-10-27T01:10:33.074Z,9.35
2022-10-27T01:13:02.466Z,9.32
2022-10-27T01:15:43.271Z,9.19
2022-10-27T01:18:23.085Z,9.15
2022-10-27T01:21:32.067Z,9.08
2022-10-27T01:24:51.888Z,8.95
2022-10-27T01:27:40.563Z,8.91
2022-10-27T01:30:10.728Z,8.82
2022-10-27T01:32:55.003Z,8.78
2022-10-27T01:35:33.902Z,8.65
2022-10-27T01:38:13.547Z,8.60
2022-10-27T01:40:51.404Z,8.65
2022-10-27T01:43:25.575Z,8.60
2022-10-27T01:45:56.935Z,8.68
2022-10-27T01:48:27.520Z,8.66
2022-10-27T01:51:01.592Z,8.60
2022-10-27T01:53:36.204Z,8.66
2022-10-27T01:56:27.955Z,8.79
2022-10-27T01:59:27.020Z,8.64
2022-10-27T02:02:09.188Z,8.75
2022-10-27T02:04:50.493Z,8.85
2022-10-27T02:07:29.360Z,8.89
2022-10-27T02:10:04.760Z,8.79
2022-10-27T02:12:37.827Z,8.60
2022-10-27T02:15:15.931Z,8.46
2022-10-27T02:17:47.027Z,8.60
2022-10-27T02:20:23.532Z,8.63
2022-10-27T02:22:56.380Z,8.54
2022-10-27T02:25:33.605Z,8.43
2022-10-27T02:28:07.719Z,8.39
2022-10-27T02:30:39.849Z,8.27
2022-10-27T02:33:09.789Z,8.22
2022-10-27T02:35:41.412Z,8.17
2022-10-27T02:38:13.139Z,8.15
2022-10-27T02:40:42.248Z,8.12
2022-10-27T02:43:11.519Z,8.06
2022-10-27T02:45:40.704Z,8.03
2022-10-27T02:48:09.832Z,8.02
2022-10-27T02:50:40.274Z,8.10
2022-10-27T02:53:09.308Z,8.17
2022-10-27T02:55:38.458Z,8.22
2022-10-27T02:58:07.444Z,8.18
2022-10-27T03:00:36.629Z,8.08
2022-10-27T03:03:05.764Z,8.17
2022-10-27T03:05:34.867Z,8.11
2022-10-27T03:08:05.716Z,8.10
2022-10-27T03:10:34.868Z,8.19
2022-10-27T03:13:03.834Z,8.33
2022-10-27T03:15:32.880Z,8.22
2022-10-27T03:18:01.871Z,8.03
2022-10-27T03:20:31.004Z,7.96
2022-10-27T03:23:00.052Z,7.86
2022-10-27T03:25:30.685Z,7.91
2022-10-27T03:27:59.692Z,7.92
2022-10-27T03:30:28.731Z,7.94
2022-10-27T03:32:57.965Z,7.89
2022-10-27T03:35:27.063Z,7.90
2022-10-27T03:37:57.644Z,7.76
2022-10-27T03:40:27.172Z,7.79
2022-10-27T03:42:59.127Z,7.65
2022-10-27T03:45:29.750Z,7.60
2022-10-27T03:48:03.630Z,7.57
2022-10-27T03:50:32.929Z,7.61
2022-10-27T03:53:03.521Z,7.64
2022-10-27T03:55:33.409Z,7.71
2022-10-27T03:58:03.780Z,7.78
2022-10-27T04:00:33.569Z,7.81
2022-10-27T04:03:02.607Z,7.64
2022-10-27T04:05:31.647Z,7.49
2022-10-27T04:08:00.899Z,7.51
2022-10-27T04:10:30.257Z,7.48
2022-10-27T04:12:59.619Z,7.42
2022-10-27T04:15:30.258Z,7.45
2022-10-27T04:18:01.367Z,7.58
2022-10-27T04:20:30.824Z,7.66
2022-10-27T04:23:00.628Z,7.69
2022-10-27T04:25:29.765Z,7.69
2022-10-27T04:28:06.937Z,7.63
2022-10-27T04:30:37.803Z,7.66
2022-10-27T04:33:06.955Z,7.75
2022-10-27T04:35:38.322Z,7.85
2022-10-27T04:38:07.656Z,7.79
2022-10-27T04:40:36.884Z,7.69
2022-10-27T04:43:07.177Z,7.67
2022-10-27T04:45:37.679Z,7.72
2022-10-27T04:48:07.220Z,7.79
2022-10-27T04:50:36.382Z,7.94
2022-10-27T04:53:05.674Z,8.15
2022-10-27T04:55:35.307Z,8.12
2022-10-27T04:58:08.425Z,7.99
2022-10-27T05:00:39.867Z,7.93
2022-10-27T05:03:10.570Z,7.98
2022-10-27T05:05:39.673Z,8.04
2022-10-27T05:08:12.129Z,8.12
2022-10-27T05:10:41.295Z,8.11
2022-10-27T05:13:10.377Z,8.14
2022-10-27T05:15:40.984Z,8.19
2022-10-27T05:18:10.470Z,8.28
2022-10-27T05:20:40.628Z,8.24
2022-10-27T05:23:09.872Z,8.29
2022-10-27T05:25:38.890Z,8.30
2022-10-27T05:28:11.472Z,8.41
2022-10-27T05:30:41.995Z,8.40
2022-10-27T05:33:11.068Z,8.48
2022-10-27T05:35:40.135Z,8.61
2022-10-27T05:38:09.256Z,8.53
2022-10-27T05:40:38.335Z,8.49
2022-10-27T05:43:07.427Z,8.54
2022-10-27T05:45:36.976Z,8.69
2022-10-27T05:48:10.908Z,8.67
2022-10-27T05:50:40.089Z,8.69
2022-10-27T05:53:09.164Z,8.61
2022-10-27T05:55:39.326Z,8.55
2022-10-27T05:58:08.435Z,8.54
2022-10-27T06:00:40.048Z,8.45
2022-10-27T06:03:22.998Z,8.48
2022-10-27T06:05:53.269Z,8.75
2022-10-27T06:08:22.584Z,8.75
2022-10-27T06:10:51.772Z,8.62
2022-10-27T06:13:20.823Z,8.70
2022-10-27T06:15:50.080Z,8.73
2022-10-27T06:18:21.552Z,8.78
2022-10-27T06:20:50.708Z,8.77
2022-10-27T06:23:19.777Z,8.66
2022-10-27T06:25:48.935Z,8.67
2022-10-27T06:28:18.145Z,8.73
2022-10-27T06:30:47.381Z,8.77
2022-10-27T06:33:16.426Z,8.90
2022-10-27T06:35:48.240Z,9.24
2022-10-27T06:38:17.576Z,9.19
2022-10-27T06:40:47.182Z,9.15
2022-10-27T06:43:16.425Z,9.44
2022-10-27T06:45:49.352Z,9.48
2022-10-27T06:48:18.506Z,9.60
2022-10-27T06:50:50.878Z,9.81
2022-10-27T06:53:20.282Z,10.03
2022-10-27T06:55:49.468Z,10.17
2022-10-27T06:58:18.522Z,10.26
2022-10-27T07:00:47.620Z,10.43
2022-10-27T07:03:17.450Z,10.53
2022-10-27T07:05:46.565Z,10.66
2022-10-27T07:08:17.108Z,10.85
2022-10-27T07:10:46.162Z,11.03
2022-10-27T07:13:15.247Z,11.29
2022-10-27T07:15:44.365Z,11.36
2022-10-27T07:18:13.701Z,11.60
2022-10-27T07:20:42.897Z,11.80
2022-10-27T07:23:12.327Z,11.82
2022-10-27T07:25:43.066Z,11.93
2022-10-27T07:28:12.238Z,12.09
2022-10-27T07:30:44.420Z,12.45
2022-10-27T07:33:13.767Z,12.59
2022-10-27T07:35:43.117Z,12.71
2022-10-27T07:38:13.252Z,12.83
2022-10-27T07:40:43.696Z,12.95
2022-10-27T07:43:14.497Z,13.21
2022-10-27T07:45:44.484Z,13.42
2022-10-27T07:48:16.047Z,13.58
2022-10-27T07:50:46.156Z,13.76
2022-10-27T07:53:16.462Z,13.88
2022-10-27T07:55:46.864Z,14.14
2022-10-27T07:58:17.784Z,14.13
2022-10-27T08:00:48.880Z,14.19
2022-10-27T08:03:20.328Z,14.19
2022-10-27T08:05:50.030Z,14.29
2022-10-27T08:08:20.111Z,14.35
2022-10-27T08:10:52.064Z,14.65
2022-10-27T08:13:21.100Z,14.63
2022-10-27T08:15:50.193Z,14.77
2022-10-27T08:18:19.613Z,15.00
2022-10-27T08:20:49.399Z,15.27
2022-10-27T08:23:21.948Z,15.28
2022-10-27T08:25:52.638Z,15.43
2022-10-27T08:28:21.644Z,15.49
2022-10-27T08:30:53.273Z,15.65
2022-10-27T08:33:23.546Z,15.90
2022-10-27T08:35:52.920Z,16.15
2022-10-27T08:38:22.398Z,16.26
2022-10-27T08:41:11.852Z,16.40
2022-10-27T08:44:09.638Z,16.62
2022-10-27T08:46:45.687Z,16.63
2022-10-27T08:49:30.048Z,16.78
2022-10-27T08:52:11.767Z,17.04
2022-10-27T08:54:45.355Z,17.30
2022-10-27T08:57:25.469Z,17.49
2022-10-27T08:59:55.664Z,17.63
2022-10-27T09:03:05.400Z,17.71
2022-10-27T09:05:45.184Z,17.70
2022-10-27T09:08:25.944Z,17.62
2022-10-27T09:11:08.684Z,18.00
2022-10-27T09:13:59.559Z,18.22
2022-10-27T09:16:38.161Z,18.40
2022-10-27T09:19:12.380Z,18.56
2022-10-27T09:21:44.693Z,18.88
2022-10-27T09:24:18.603Z,18.99
2022-10-27T09:26:49.409Z,19.11
2022-10-27T09:29:22.742Z,19.26
2022-10-27T09:31:55.728Z,19.39
2022-10-27T09:34:30.663Z,19.52
2022-10-27T09:36:59.873Z,19.62
2022-10-27T09:39:29.063Z,19.74
2022-10-27T09:41:59.144Z,19.91
2022-10-27T09:44:29.587Z,19.98
2022-10-27T09:46:58.888Z,20.02
2022-10-27T09:49:33.523Z,20.08
2022-10-27T09:52:07.611Z,20.11
2022-10-27T09:54:39.644Z,20.11
2022-10-27T09:57:13.171Z,20.05
2022-10-27T09:59:43.841Z,20.04
2022-10-27T10:02:28.842Z,20.13
2022-10-27T10:04:59.378Z,20.11
2022-10-27T10:07:37.967Z,20.11
2022-10-27T10:10:19.118Z,20.18
2022-10-27T10:12:49.361Z,20.29
2022-10-27T10:15:22.013Z,20.39
2022-10-27T10:17:58.040Z,20.45
2022-10-27T10:20:39.396Z,20.55
2022-10-27T10:23:21.009Z,20.67
2022-10-27T10:25:51.920Z,20.67
2022-10-27T10:28:35.299Z,20.74
2022-10-27T10:31:09.031Z,20.74
2022-10-27T10:33:42.483Z,20.75
2022-10-27T10:36:28.230Z,20.79
2022-10-27T10:39:00.089Z,20.87
2022-10-27T10:41:30.144Z,20.93
2022-10-27T10:44:16.261Z,21.06
2022-10-27T10:46:55.544Z,21.14
2022-10-27T10:49:28.351Z,21.19
2022-10-27T10:52:00.839Z,21.30
2022-10-27T10:54:35.055Z,21.26
2022-10-27T10:57:05.046Z,21.39
2022-10-27T10:59:36.339Z,21.40
2022-10-27T11:02:19.935Z,21.41
2022-10-27T11:04:49.070Z,21.50
2022-10-27T11:07:25.101Z,21.58
2022-10-27T11:10:04.783Z,21.63
2022-10-27T11:12:43.299Z,21.58
2022-10-27T11:15:20.368Z,21.70
2022-10-27T11:17:55.009Z,21.84
2022-10-27T11:20:28.184Z,21.83
2022-10-27T11:22:59.200Z,21.75
2022-10-27T11:25:32.569Z,21.72
2022-10-27T11:28:11.893Z,21.68
2022-10-27T11:30:45.676Z,21.77
2022-10-27T11:33:26.707Z,21.97
2022-10-27T11:36:09.454Z,22.16
2022-10-27T11:38:52.499Z,22.43
2022-10-27T11:41:31.719Z,22.53
2022-10-27T11:44:10.614Z,22.52
2022-10-27T11:46:45.817Z,22.60
2022-10-27T11:49:26.479Z,22.52
2022-10-27T11:52:01.583Z,22.40
2022-10-27T11:54:31.792Z,22.42
2022-10-27T11:57:35.079Z,22.61
2022-10-27T12:00:21.451Z,22.71
2022-10-27T12:03:23.154Z,22.70
2022-10-27T12:05:59.934Z,22.93
2022-10-27T12:08:43.604Z,23.16
2022-10-27T12:11:34.233Z,23.14
2022-10-27T12:14:11.631Z,23.30
2022-10-27T12:16:47.147Z,23.47
2022-10-27T12:19:20.632Z,23.56
2022-10-27T12:21:56.480Z,23.69
2022-10-27T12:24:30.520Z,23.82
2022-10-27T12:27:03.575Z,24.13
2022-10-27T12:29:41.136Z,24.34
2022-10-27T12:32:16.302Z,24.55
2022-10-27T12:34:53.188Z,24.65
2022-10-27T12:40:18.181Z,25.39
2022-10-27T12:42:57.455Z,26.13
2022-10-27T12:45:45.975Z,25.72
2022-10-27T12:51:36.593Z,25.34
2022-10-27T12:54:28.030Z,25.75
2022-10-27T12:57:18.622Z,26.12
2022-10-27T13:00:02.511Z,26.24
2022-10-27T13:02:38.764Z,26.09
2022-10-27T13:05:37.491Z,26.37
2022-10-27T13:11:43.271Z,28.62
2022-10-27T13:14:43.559Z,31.06
2022-10-27T13:17:22.670Z,31.17
2022-10-27T13:20:00.298Z,31.33
2022-10-27T13:22:38.895Z,32.49
2022-10-27T13:25:20.632Z,31.84
2022-10-27T13:28:01.878Z,32.15
2022-10-27T13:30:33.925Z,31.51
2022-10-27T13:33:03.043Z,31.15
2022-10-27T13:35:37.106Z,30.46
2022-10-27T13:38:27.311Z,29.94
2022-10-27T13:40:58.366Z,29.38
2022-10-27T13:44:01.531Z,30.16
2022-10-27T13:47:17.008Z,30.52
2022-10-27T13:50:02.858Z,30.89
2022-10-27T13:52:33.739Z,31.02
2022-10-27T13:55:23.476Z,30.93
2022-10-27T13:58:42.690Z,34.17
2022-10-27T14:01:36.731Z,36.83
2022-10-27T14:04:34.484Z,36.71
2022-10-27T14:09:46.336Z,37.79
2022-10-27T14:12:26.741Z,37.90
2022-10-27T14:15:03.848Z,36.80
2022-10-27T14:17:37.209Z,36.76
2022-10-27T14:20:17.308Z,37.78
2022-10-27T14:22:50.679Z,38.13
2022-10-27T14:25:28.992Z,38.26
2022-10-27T14:28:15.911Z,38.60
2022-10-27T14:30:45.855Z,38.84
2022-10-27T14:33:23.122Z,38.88
2022-10-27T14:36:07.878Z,38.52
2022-10-27T14:38:37.358Z,38.39
2022-10-27T14:41:19.060Z,36.65
2022-10-27T14:43:52.943Z,33.61
2022-10-27T14:46:28.447Z,30.74
2022-10-27T14:49:04.191Z,28.53
2022-10-27T14:51:37.821Z,27.03
2022-10-27T14:54:07.965Z,25.83
2022-10-27T14:56:37.415Z,24.87
2022-10-27T14:59:21.156Z,23.95
2022-10-27T15:01:50.981Z,23.30
2022-10-27T15:04:25.002Z,22.77
2022-10-27T15:06:57.515Z,22.51
2022-10-27T15:09:35.104Z,22.28
2022-10-27T15:12:07.903Z,21.98
2022-10-27T15:14:40.109Z,21.74
2022-10-27T15:17:15.959Z,21.57
2022-10-27T15:19:48.810Z,21.33
2022-10-27T15:22:18.660Z,21.09
2022-10-27T15:24:48.306Z,20.79
2022-10-27T15:27:18.089Z,20.49
2022-10-27T15:29:49.812Z,20.13
2022-10-27T15:32:24.143Z,19.62
2022-10-27T15:34:54.821Z,19.19
2022-10-27T15:37:30.792Z,18.94
2022-10-27T15:40:31.991Z,18.62
2022-10-27T15:43:02.229Z,18.36
2022-10-27T15:45:42.662Z,18.06
2022-10-27T15:48:33.668Z,17.60
2022-10-27T15:51:08.771Z,17.36
2022-10-27T15:53:45.999Z,17.23
2022-10-27T15:56:38.136Z,16.93
2022-10-27T15:59:19.162Z,16.71
2022-10-27T16:01:49.801Z,16.54
2022-10-27T16:04:29.204Z,16.39
2022-10-27T16:07:32.193Z,16.07
2022-10-27T16:10:01.297Z,15.92
2022-10-27T16:12:42.379Z,15.75
2022-10-27T16:15:21.857Z,15.64
2022-10-27T16:17:54.740Z,15.42
2022-10-27T16:20:28.270Z,15.25
2022-10-27T16:23:00.045Z,15.14
2022-10-27T16:25:32.640Z,15.16
2022-10-27T16:28:05.155Z,15.06
2022-10-27T16:30:38.912Z,14.96
2022-10-27T16:33:10.750Z,14.85
2022-10-27T16:35:40.049Z,14.62
2022-10-27T16:38:11.814Z,14.43
2022-10-27T16:40:47.621Z,14.44
2022-10-27T16:43:24.577Z,14.37
2022-10-27T16:45:53.784Z,14.34
2022-10-27T16:48:23.189Z,14.29
2022-10-27T16:50:52.308Z,14.13
2022-10-27T16:53:24.245Z,14.07
2022-10-27T16:56:08.135Z,13.92
2022-10-27T16:58:41.941Z,13.85
2022-10-27T17:01:14.549Z,13.73
2022-10-27T17:03:44.303Z,13.59
2022-10-27T17:06:14.110Z,13.60
2022-10-27T17:08:47.160Z,13.61
2022-10-27T17:11:18.373Z,13.56
2022-10-27T17:13:47.467Z,13.39
2022-10-27T17:16:19.059Z,13.37
2022-10-27T17:18:48.805Z,13.51
2022-10-27T17:21:18.083Z,13.34
2022-10-27T17:23:48.611Z,13.29
2022-10-27T17:26:19.313Z,13.13
2022-10-27T17:28:50.804Z,12.85
2022-10-27T17:31:22.691Z,12.78
2022-10-27T17:33:56.239Z,12.93
2022-10-27T17:36:27.953Z,12.94
2022-10-27T17:39:01.220Z,12.64
2022-10-27T17:41:30.903Z,12.60
2022-10-27T17:44:00.240Z,12.49
2022-10-27T17:46:30.600Z,12.58
2022-10-27T17:51:37.177Z,12.97
2022-10-27T17:54:07.960Z,12.77
2022-10-27T17:56:39.339Z,12.70
2022-10-27T17:59:13.582Z,12.62
2022-10-27T18:01:44.259Z,12.45
2022-10-27T18:04:13.882Z,12.37
2022-10-27T18:06:44.416Z,12.34
2022-10-27T18:09:18.053Z,12.36
2022-10-27T18:11:47.609Z,12.55
2022-10-27T18:14:19.381Z,12.39
2022-10-27T18:16:48.815Z,12.23
2022-10-27T18:19:18.279Z,12.13
2022-10-27T18:21:49.189Z,11.99
2022-10-27T18:24:24.503Z,11.99
2022-10-27T18:26:53.671Z,11.95
2022-10-27T18:29:25.640Z,11.94
2022-10-27T18:31:56.105Z,11.95
2022-10-27T18:34:25.652Z,11.96
2022-10-27T18:36:55.577Z,11.74
2022-10-27T18:39:27.369Z,11.53
2022-10-27T18:41:56.907Z,11.46
2022-10-27T18:44:27.702Z,11.42
2022-10-27T18:46:57.784Z,11.41
2022-10-27T18:49:46.837Z,11.43
2022-10-27T18:52:17.307Z,11.46
2022-10-27T18:54:47.829Z,11.47
2022-10-27T18:57:17.485Z,11.42
2022-10-27T18:59:47.269Z,11.50
2022-10-27T19:02:16.578Z,11.38
2022-10-27T19:04:45.893Z,11.24
2022-10-27T19:07:15.110Z,11.34
2022-10-27T19:09:44.635Z,11.47
2022-10-27T19:12:15.196Z,11.26
2022-10-27T19:14:47.245Z,11.26
2022-10-27T19:17:16.969Z,11.16
2022-10-27T19:19:46.285Z,10.89
2022-10-27T19:22:18.665Z,10.83
2022-10-27T19:24:48.066Z,10.89
2022-10-27T19:27:18.632Z,10.86
2022-10-27T19:29:47.833Z,10.84
2022-10-27T19:32:16.946Z,10.67
2022-10-27T19:34:49.131Z,10.68
2022-10-27T19:37:24.486Z,10.74
2022-10-27T19:39:56.462Z,10.71
2022-10-27T19:42:27.586Z,10.85
2022-10-27T19:45:02.265Z,10.75
2022-10-27T19:47:31.523Z,10.66
2022-10-27T19:50:01.883Z,10.81
2022-10-27T19:52:30.994Z,10.73
2022-10-27T19:55:00.393Z,10.74
2022-10-27T19:57:31.118Z,10.57
2022-10-27T20:00:07.633Z,10.38
2022-10-27T20:02:37.405Z,10.28
2022-10-27T20:05:08.056Z,10.40
2022-10-27T20:07:37.395Z,10.42
2022-10-27T20:10:07.797Z,10.55
2022-10-27T20:12:39.454Z,10.31
2022-10-27T20:15:09.458Z,10.24
2022-10-27T20:17:39.102Z,10.26
2022-10-27T20:20:09.521Z,10.27
2022-10-27T20:22:38.665Z,10.24
2022-10-27T20:25:10.634Z,10.33
2022-10-27T20:27:44.732Z,10.42
2022-10-27T20:30:14.244Z,10.35
2022-10-27T20:32:43.899Z,10.31
2022-10-27T20:35:13.212Z,10.19
2022-10-27T20:37:42.299Z,10.21
2022-10-27T20:40:12.203Z,10.14
2022-10-27T20:42:42.664Z,10.02
2022-10-27T20:45:12.268Z,9.99
2022-10-27T20:47:48.717Z,9.90
2022-10-27T20:50:17.831Z,9.85
2022-10-27T20:52:46.842Z,9.94
2022-10-27T20:55:16.049Z,9.78
2022-10-27T20:57:46.544Z,9.66
2022-10-27T21:00:18.696Z,9.53
2022-10-27T21:02:51.039Z,9.52
2022-10-27T21:07:54.391Z,9.44
2022-10-27T21:10:23.931Z,9.45
2022-10-27T21:12:57.811Z,9.49
2022-10-27T21:15:30.298Z,9.64
2022-10-27T21:17:59.460Z,9.62
2022-10-27T21:20:28.544Z,9.63
2022-10-27T21:22:58.052Z,9.62
2022-10-27T21:25:28.133Z,9.53
2022-10-27T21:27:59.438Z,9.45
2022-10-27T21:30:28.449Z,9.30
2022-10-27T21:32:57.718Z,9.27
2022-10-27T21:35:27.593Z,9.21
2022-10-27T21:37:57.090Z,9.16
2022-10-27T21:40:26.285Z,9.18
2022-10-27T21:42:59.839Z,9.12
2022-10-27T21:45:29.253Z,9.08
2022-10-27T21:47:58.906Z,9.09
2022-10-27T21:50:28.134Z,9.01
2022-10-27T21:52:57.137Z,9.07
2022-10-27T21:55:28.047Z,9.13
2022-10-27T21:57:58.479Z,9.29
2022-10-27T22:00:27.650Z,9.15
2022-10-27T22:02:56.799Z,9.18
2022-10-27T22:05:27.855Z,9.11
2022-10-27T22:07:56.976Z,9.17
2022-10-27T22:10:26.151Z,9.06
2022-10-27T22:12:55.524Z,9.16
2022-10-27T22:15:26.113Z,9.04
2022-10-27T22:17:55.528Z,8.93
2022-10-27T22:20:24.648Z,8.92
2022-10-27T22:22:55.083Z,8.82
2022-10-27T22:25:24.419Z,8.72
2022-10-27T22:27:53.439Z,8.83
2022-10-27T22:30:22.606Z,8.70
2022-10-27T22:32:53.828Z,8.54
2022-10-27T22:35:23.096Z,8.49
2022-10-27T22:37:52.310Z,8.47
2022-10-27T22:40:21.839Z,8.50
2022-10-27T22:42:50.936Z,8.55
2022-10-27T22:45:20.008Z,8.55
2022-10-27T22:47:49.164Z,8.65
2022-10-27T22:50:19.678Z,8.79
2022-10-27T22:52:48.695Z,8.76
2022-10-27T22:55:17.921Z,8.61
2022-10-27T22:57:47.042Z,8.40
2022-10-27T23:00:16.912Z,8.28
2022-10-27T23:02:45.940Z,8.15
2022-10-27T23:05:15.122Z,8.07
2022-10-27T23:07:45.552Z,8.11
2022-10-27T23:10:14.579Z,8.08
2022-10-27T23:12:43.750Z,8.07
2022-10-27T23:15:12.808Z,8.12
2022-10-27T23:17:41.856Z,8.22
2022-10-27T23:20:12.395Z,8.30
2022-10-27T23:22:41.424Z,8.25
2022-10-27T23:25:12.195Z,8.19
2022-10-27T23:27:43.639Z,8.26
2022-10-27T23:30:13.707Z,8.11
2022-10-27T23:32:43.360Z,7.96
2022-10-27T23:35:12.384Z,8.04
2022-10-27T23:37:42.464Z,8.17
2022-10-27T23:40:13.709Z,8.09
2022-10-27T23:42:42.936Z,7.93
2022-10-27T23:45:12.304Z,8.00
2022-10-27T23:47:41.335Z,7.93
2022-10-27T23:50:11.580Z,7.84
2022-10-27T23:52:40.809Z,7.85
2022-10-27T23:55:10.669Z,7.86
2022-10-27T23:57:41.107Z,7.84
